Portada
METAR-TAF:

METAR-TAF

Aeroports :

Heringsdorf, Alemanya

latitud: 53-53N, longitud: 014-09E, altitud: 28 m

Observació

L'informe es va fer fa 10 hores i 33 minuts, a les 14:50 UTC
Vent 9 kt del Oest/Sud-Oest
Temperatura 5°C
Humitat 87%
Pressió 1018 hPa
Visibilitat 10 km o més
Cel ennuvolat a una alçada de 1200 ft

METAR: EDAH 241450Z 25009KT 9999 BKN012 05/03 Q1018

Hora: 02:23 (01:23 UTC)

Pronòstic

L'informe es va fer fa 11 hores i 23 minuts, a les 14:00 UTC
Pronòstic vàlid del 24 a les 15 UTC al 24 a les 24 UTC
Vent 9 kt del Oest/Sud-Oest
Visibilitat 10 km o més
Cel ennuvolat a una alçada de 1300 ft
Evolucionant progressivament
l' 24 a les 15 UTC al 24 a les 19 UTC
Cel ennuvolat a una alçada de 700 ft
Temporalment
l' 24 a les 16 UTC al 24 a les 20 UTC
Visibilitat: 3500 m
Cel ennuvolat a una alçada de 300 ft
plugim, boirina

TAF: EDAH 241400Z 2415/2424 24009KT 9999 BKN013 BECMG 2415/2419 BKN007 TEMPO 2416/2420 3500 -DZ BR BKN003

Observacions i pronòstics meteorològics de més de 4000 aeroports (METAR i TAF).

Les estacions disponibles són els punts grocs i vermells al mapa.

Posi el ratolí al punt desitjat per veure el nom de l'estació.

Feu clic per veure les observacions i els pronòstics meteorològics.

Per canviar el mapa: feu clic els botons verds amb una creu de color negre per apropar; al botó verd amb un guió per allunyar la imatge; o en les fletxes verdes per a mapes adjacents.


METAR-TAF: